createdAt,value
2023-02-11T00:00:55.745Z,90.54
2023-02-11T00:01:55.756Z,90.54
2023-02-11T00:02:55.759Z,90.54
2023-02-11T00:03:55.700Z,90.54
2023-02-11T00:04:55.716Z,90.64
2023-02-11T00:06:03.209Z,90.64
2023-02-11T00:06:55.679Z,90.64
2023-02-11T00:08:02.676Z,90.54
2023-02-11T00:09:02.662Z,90.54
2023-02-11T00:09:55.653Z,90.54
2023-02-11T00:10:55.633Z,90.54
2023-02-11T00:11:55.614Z,90.44
2023-02-11T00:12:55.603Z,90.33
2023-02-11T00:13:55.614Z,90.44
2023-02-11T00:14:55.622Z,90.54
2023-02-11T00:15:55.578Z,90.54
2023-02-11T00:16:55.630Z,90.54
2023-02-11T00:17:55.542Z,90.54
2023-02-11T00:18:55.538Z,90.54
2023-02-11T00:19:55.533Z,90.44
2023-02-11T00:20:55.516Z,90.44
2023-02-11T00:21:55.503Z,90.44
2023-02-11T00:22:55.499Z,90.44
2023-02-11T00:23:55.483Z,90.44
2023-02-11T00:24:55.474Z,90.54
2023-02-11T00:25:55.452Z,90.54
2023-02-11T00:26:55.473Z,90.54
2023-02-11T00:27:55.472Z,90.54
2023-02-11T00:28:55.413Z,90.54
2023-02-11T00:29:55.412Z,90.64
2023-02-11T00:30:55.541Z,90.54
2023-02-11T00:31:55.556Z,90.54
2023-02-11T00:32:55.391Z,90.54
2023-02-11T00:33:55.363Z,90.54
2023-02-11T00:34:55.364Z,90.54
2023-02-11T00:35:55.337Z,90.54
2023-02-11T00:36:55.339Z,90.54
2023-02-11T00:37:55.327Z,90.54
2023-02-11T00:38:55.305Z,90.54
2023-02-11T00:39:55.309Z,90.54
2023-02-11T00:40:55.287Z,90.54
2023-02-11T00:41:55.260Z,90.54
2023-02-11T00:42:55.270Z,90.54
2023-02-11T00:43:55.239Z,90.54
2023-02-11T00:44:55.256Z,90.54
2023-02-11T00:45:55.237Z,90.54
2023-02-11T00:46:55.212Z,90.54
2023-02-11T00:47:55.213Z,90.64
2023-02-11T00:48:55.223Z,90.64
2023-02-11T00:49:55.181Z,90.79
2023-02-11T00:50:55.169Z,90.89
2023-02-11T00:51:55.149Z,91.00
2023-02-11T00:52:55.159Z,90.89
2023-02-11T00:53:55.127Z,90.89
2023-02-11T00:54:55.135Z,91.00
2023-02-11T00:55:55.110Z,91.00
2023-02-11T00:56:55.089Z,91.00
2023-02-11T00:57:55.109Z,91.10
2023-02-11T00:58:55.102Z,91.20
2023-02-11T00:59:55.060Z,91.20
2023-02-11T01:00:55.049Z,91.20
2023-02-11T01:01:55.054Z,91.10
2023-02-11T01:02:55.044Z,91.10
2023-02-11T01:03:55.018Z,91.20
2023-02-11T01:04:55.025Z,91.31
2023-02-11T01:05:55.000Z,91.41
2023-02-11T01:06:54.991Z,91.41
2023-02-11T01:07:54.982Z,91.52
2023-02-11T01:08:54.960Z,91.55
2023-02-11T01:09:54.975Z,91.66
2023-02-11T01:10:54.933Z,91.76
2023-02-11T01:11:54.944Z,91.76
2023-02-11T01:12:54.924Z,91.86
2023-02-11T01:13:54.913Z,91.86
2023-02-11T01:14:54.894Z,92.07
2023-02-11T01:15:54.963Z,92.07
2023-02-11T01:16:54.867Z,92.18
2023-02-11T01:17:54.882Z,92.07
2023-02-11T01:18:54.845Z,92.07
2023-02-11T01:19:54.855Z,92.07
2023-02-11T01:20:54.826Z,92.18
2023-02-11T01:21:54.815Z,92.28
2023-02-11T01:22:54.795Z,92.28
2023-02-11T01:23:54.805Z,92.28
2023-02-11T01:24:54.841Z,92.28
2023-02-11T01:25:54.788Z,92.28
2023-02-11T01:26:54.757Z,92.28
2023-02-11T01:27:54.805Z,92.28
2023-02-11T01:28:54.744Z,92.28
2023-02-11T01:29:54.726Z,92.28
2023-02-11T01:30:54.761Z,92.38
2023-02-11T01:31:54.765Z,92.43
2023-02-11T01:32:54.708Z,92.43
2023-02-11T01:33:54.679Z,92.53
2023-02-11T01:34:54.647Z,92.63
2023-02-11T01:36:01.670Z,92.74
2023-02-11T01:37:01.640Z,92.74
2023-02-11T01:38:02.661Z,92.74
2023-02-11T01:39:01.645Z,92.84
2023-02-11T01:40:02.137Z,92.94
2023-02-11T01:40:54.596Z,92.94
2023-02-11T01:41:54.598Z,93.10
2023-02-11T01:42:54.587Z,93.20
2023-02-11T01:43:54.565Z,93.20
2023-02-11T01:44:54.543Z,93.30
2023-02-11T01:45:54.566Z,93.30
2023-02-11T01:46:54.527Z,93.16
2023-02-11T01:47:54.529Z,93.20
2023-02-11T01:48:54.516Z,93.10
2023-02-11T01:49:54.496Z,93.10
2023-02-11T01:50:54.486Z,93.20
2023-02-11T01:51:54.465Z,93.30
2023-02-11T01:52:54.466Z,93.41
2023-02-11T01:53:54.445Z,93.41
2023-02-11T01:54:54.434Z,93.51
2023-02-11T01:55:54.428Z,93.51
2023-02-11T01:56:54.414Z,93.62
2023-02-11T01:57:54.425Z,93.62
2023-02-11T01:58:54.386Z,93.62
2023-02-11T01:59:54.397Z,93.62
2023-02-11T02:00:54.355Z,93.72
2023-02-11T02:01:54.470Z,93.72
2023-02-11T02:02:54.334Z,93.82
2023-02-11T02:03:54.508Z,93.87
2023-02-11T02:04:54.337Z,93.97
2023-02-11T02:05:54.311Z,94.07
2023-02-11T02:06:54.298Z,94.07
2023-02-11T02:07:54.297Z,94.18
2023-02-11T02:08:54.270Z,94.18
2023-02-11T02:09:54.286Z,94.28
2023-02-11T02:10:54.277Z,94.18
2023-02-11T02:11:54.242Z,94.38
2023-02-11T02:12:54.222Z,94.49
2023-02-11T02:13:54.220Z,94.70
2023-02-11T02:14:54.214Z,94.70
2023-02-11T02:15:54.279Z,94.70
2023-02-11T02:16:54.205Z,94.70
2023-02-11T02:17:54.157Z,94.70
2023-02-11T02:18:54.190Z,94.70
2023-02-11T02:19:54.142Z,94.59
2023-02-11T02:20:54.135Z,94.70
2023-02-11T02:21:54.111Z,94.59
2023-02-11T02:22:54.142Z,94.70
2023-02-11T02:23:54.095Z,94.59
2023-02-11T02:24:54.223Z,94.59
2023-02-11T02:25:54.095Z,94.70
2023-02-11T02:26:54.065Z,94.70
2023-02-11T02:27:54.040Z,94.80
2023-02-11T02:28:54.033Z,94.90
2023-02-11T02:29:54.061Z,94.90
2023-02-11T02:30:54.143Z,94.90
2023-02-11T02:31:54.017Z,95.01
2023-02-11T02:32:53.993Z,95.01
2023-02-11T02:33:53.985Z,95.01
2023-02-11T02:34:53.968Z,95.01
2023-02-11T02:35:53.950Z,95.32
2023-02-11T02:36:53.940Z,95.32
2023-02-11T02:37:53.940Z,95.21
2023-02-11T02:38:53.940Z,95.11
2023-02-11T02:39:53.905Z,95.11
2023-02-11T02:40:53.903Z,95.01
2023-02-11T02:41:53.880Z,94.90
2023-02-11T02:42:53.888Z,94.80
2023-02-11T02:43:53.894Z,94.84
2023-02-11T02:44:53.853Z,94.95
2023-02-11T02:45:53.847Z,94.95
2023-02-11T02:46:53.934Z,94.90
2023-02-11T02:47:53.814Z,94.80
2023-02-11T02:48:53.826Z,94.90
2023-02-11T02:49:53.793Z,94.90
2023-02-11T02:50:53.788Z,94.90
2023-02-11T02:51:53.785Z,94.90
2023-02-11T02:52:53.772Z,94.90
2023-02-11T02:53:53.762Z,95.05
2023-02-11T02:54:53.744Z,95.05
2023-02-11T02:55:53.773Z,94.95
2023-02-11T02:56:53.720Z,95.15
2023-02-11T02:57:53.708Z,95.15
2023-02-11T02:58:53.700Z,95.15
2023-02-11T02:59:53.688Z,95.26
2023-02-11T03:00:53.721Z,95.36
2023-02-11T03:01:53.645Z,95.36
2023-02-11T03:02:53.637Z,95.36
2023-02-11T03:03:53.717Z,95.36
2023-02-11T03:04:53.627Z,95.47
2023-02-11T03:05:53.773Z,95.47
2023-02-11T03:06:53.621Z,95.36
2023-02-11T03:08:01.112Z,95.47
2023-02-11T03:09:00.581Z,95.36
2023-02-11T03:10:00.610Z,95.36
2023-02-11T03:10:53.570Z,95.47
2023-02-11T03:11:53.861Z,95.57
2023-02-11T03:12:53.530Z,95.67
2023-02-11T03:13:53.540Z,95.78
2023-02-11T03:14:53.530Z,95.89
2023-02-11T03:15:53.770Z,95.99
2023-02-11T03:16:53.490Z,96.03
2023-02-11T03:17:53.480Z,96.14
2023-02-11T03:18:53.462Z,96.14
2023-02-11T03:19:53.461Z,96.14
2023-02-11T03:20:53.454Z,96.14
2023-02-11T03:21:54.166Z,96.14
2023-02-11T03:22:53.410Z,96.24
2023-02-11T03:23:53.413Z,96.34
2023-02-11T03:24:53.414Z,96.34
2023-02-11T03:25:53.381Z,96.34
2023-02-11T03:26:53.370Z,96.45
2023-02-11T03:27:53.360Z,96.59
2023-02-11T03:28:53.381Z,96.59
2023-02-11T03:29:53.332Z,96.59
2023-02-11T03:30:53.428Z,96.70
2023-02-11T03:31:53.727Z,96.70
2023-02-11T03:32:53.318Z,96.80
2023-02-11T03:33:53.300Z,96.80
2023-02-11T03:34:53.273Z,96.91
2023-02-11T03:35:53.270Z,96.95
2023-02-11T03:36:53.263Z,97.06
2023-02-11T03:37:53.243Z,97.06
2023-02-11T03:38:53.262Z,97.06
2023-02-11T03:39:53.259Z,97.37
2023-02-11T03:40:53.202Z,97.47
2023-02-11T03:41:53.236Z,97.58
2023-02-11T03:42:53.187Z,97.68
2023-02-11T03:43:53.181Z,97.89
2023-02-11T03:44:53.183Z,97.89
2023-02-11T03:45:53.626Z,97.89
2023-02-11T03:46:53.151Z,97.89
2023-02-11T03:47:53.133Z,97.68
2023-02-11T03:48:53.111Z,97.78
2023-02-11T03:49:53.124Z,97.72
2023-02-11T03:50:53.096Z,97.72
2023-02-11T03:51:53.091Z,97.83
2023-02-11T03:52:53.070Z,97.94
2023-02-11T03:53:53.104Z,97.94
2023-02-11T03:54:53.051Z,97.89
2023-02-11T03:55:53.131Z,97.99
2023-02-11T03:56:53.026Z,97.99
2023-02-11T03:57:53.023Z,98.10
2023-02-11T03:58:53.002Z,98.10
2023-02-11T03:59:53.015Z,97.99
2023-02-11T04:00:53.019Z,97.99
2023-02-11T04:01:53.281Z,97.99
2023-02-11T04:02:52.990Z,97.99
2023-02-11T04:03:52.957Z,97.99
2023-02-11T04:04:52.951Z,97.89
2023-02-11T04:05:52.970Z,97.89
2023-02-11T04:06:52.911Z,97.94
2023-02-11T04:07:52.903Z,97.94
2023-02-11T04:08:52.904Z,97.94
2023-02-11T04:09:52.927Z,98.04
2023-02-11T04:10:52.893Z,98.04
2023-02-11T04:11:52.919Z,98.14
2023-02-11T04:12:52.866Z,98.14
2023-02-11T04:13:52.844Z,98.14
2023-02-11T04:14:52.842Z,98.14
2023-02-11T04:15:53.178Z,98.14
2023-02-11T04:16:52.817Z,98.14
2023-02-11T04:17:52.791Z,98.14
2023-02-11T04:18:52.794Z,98.14
2023-02-11T04:19:53.086Z,98.14
2023-02-11T04:20:52.763Z,98.14
2023-02-11T04:21:52.791Z,98.14
2023-02-11T04:22:52.731Z,98.14
2023-02-11T04:23:52.723Z,98.25
2023-02-11T04:24:52.739Z,98.20
2023-02-11T04:25:52.978Z,98.20
2023-02-11T04:26:52.693Z,98.20
2023-02-11T04:27:52.690Z,98.20
2023-02-11T04:28:52.685Z,98.31
2023-02-11T04:29:52.680Z,98.31
2023-02-11T04:30:52.662Z,98.31
2023-02-11T04:31:52.725Z,98.31
2023-02-11T04:32:52.624Z,98.25
2023-02-11T04:33:52.612Z,98.14
2023-02-11T04:34:52.625Z,98.14
2023-02-11T04:35:52.770Z,98.14
2023-02-11T04:36:59.633Z,98.14
2023-02-11T04:37:59.586Z,98.14
2023-02-11T04:39:00.582Z,98.25
2023-02-11T04:39:59.593Z,98.25
2023-02-11T04:40:59.552Z,98.35
2023-02-11T04:41:52.523Z,98.35
2023-02-11T04:42:52.513Z,98.35
2023-02-11T04:43:52.504Z,98.46
2023-02-11T04:44:52.516Z,98.56
2023-02-11T04:45:52.871Z,98.66
2023-02-11T04:46:52.482Z,98.66
2023-02-11T04:47:52.458Z,98.66
2023-02-11T04:48:52.470Z,98.62
2023-02-11T04:49:52.444Z,98.52
2023-02-11T04:50:52.438Z,98.52
2023-02-11T04:51:52.406Z,98.41
2023-02-11T04:52:52.415Z,98.20
2023-02-11T04:53:52.395Z,98.20
2023-02-11T04:54:52.394Z,98.10
2023-02-11T04:55:52.668Z,98.10
2023-02-11T04:56:52.375Z,98.10
2023-02-11T04:57:52.364Z,98.04
2023-02-11T04:58:52.343Z,98.04
2023-02-11T04:59:52.332Z,98.04
2023-02-11T05:00:52.365Z,98.04
2023-02-11T05:01:52.303Z,98.14
2023-02-11T05:02:52.293Z,98.25
2023-02-11T05:03:52.311Z,98.25
2023-02-11T05:04:52.298Z,98.25
2023-02-11T05:05:52.706Z,98.20
2023-02-11T05:06:52.256Z,98.20
2023-02-11T05:07:52.276Z,98.31
2023-02-11T05:08:52.240Z,98.31
2023-02-11T05:09:52.226Z,98.20
2023-02-11T05:10:52.216Z,98.10
2023-02-11T05:11:52.361Z,98.10
2023-02-11T05:12:54.649Z,97.99
2023-02-11T05:13:52.164Z,97.99
2023-02-11T05:14:52.191Z,97.99
2023-02-11T05:15:52.536Z,97.95
2023-02-11T05:16:52.229Z,97.95
2023-02-11T05:17:52.122Z,97.95
2023-02-11T05:18:52.679Z,97.95
2023-02-11T05:19:52.113Z,97.95
2023-02-11T05:20:52.104Z,97.85
2023-02-11T05:22:02.045Z,97.85
2023-02-11T05:22:53.077Z,97.80
2023-02-11T05:23:52.058Z,97.80
2023-02-11T05:24:52.067Z,97.80
2023-02-11T05:25:52.376Z,97.70
2023-02-11T05:26:52.033Z,97.59
2023-02-11T05:27:52.022Z,97.49
2023-02-11T05:28:52.006Z,97.49
2023-02-11T05:29:52.015Z,97.24
2023-02-11T05:30:52.071Z,97.13
2023-02-11T05:31:51.964Z,97.03
2023-02-11T05:32:51.987Z,96.92
2023-02-11T05:33:51.960Z,96.72
2023-02-11T05:34:51.935Z,96.61
2023-02-11T05:35:52.189Z,96.51
2023-02-11T05:36:51.917Z,96.41
2023-02-11T05:37:51.905Z,96.41
2023-02-11T05:38:51.892Z,96.20
2023-02-11T05:39:51.889Z,95.99
2023-02-11T05:40:51.872Z,95.99
2023-02-11T05:41:51.867Z,95.84
2023-02-11T05:42:51.846Z,95.73
2023-02-11T05:43:51.836Z,95.53
2023-02-11T05:44:51.838Z,95.42
2023-02-11T05:45:52.154Z,95.21
2023-02-11T05:46:51.804Z,95.21
2023-02-11T05:47:51.781Z,95.11
2023-02-11T05:48:51.787Z,95.01
2023-02-11T05:49:51.774Z,94.90
2023-02-11T05:50:51.761Z,95.01
2023-02-11T05:51:51.753Z,95.01
2023-02-11T05:52:51.733Z,95.01
2023-02-11T05:53:51.712Z,94.90
2023-02-11T05:54:51.718Z,94.80
2023-02-11T05:55:51.981Z,94.80
2023-02-11T05:56:51.683Z,94.80
2023-02-11T05:57:51.691Z,94.80
2023-02-11T05:58:51.665Z,94.80
2023-02-11T05:59:51.693Z,94.80
2023-02-11T06:00:51.624Z,94.70
2023-02-11T06:01:51.635Z,94.80
2023-02-11T06:02:51.654Z,94.80
2023-02-11T06:03:51.673Z,94.70
2023-02-11T06:04:51.596Z,94.70
2023-02-11T06:05:51.904Z,94.70
2023-02-11T06:06:51.597Z,94.80
2023-02-11T06:07:51.554Z,94.70
2023-02-11T06:08:58.574Z,94.70
2023-02-11T06:09:58.556Z,94.70
2023-02-11T06:10:58.538Z,94.70
2023-02-11T06:11:58.536Z,94.70
2023-02-11T06:12:51.494Z,94.70
2023-02-11T06:13:51.484Z,94.80
2023-02-11T06:14:51.505Z,94.80
2023-02-11T06:15:51.819Z,94.90
2023-02-11T06:16:51.478Z,94.90
2023-02-11T06:17:51.445Z,95.01
2023-02-11T06:18:51.434Z,94.90
2023-02-11T06:19:51.439Z,95.01
2023-02-11T06:20:51.404Z,95.01
2023-02-11T06:21:51.399Z,94.96
2023-02-11T06:22:51.389Z,94.96
2023-02-11T06:23:51.364Z,94.86
2023-02-11T06:25:01.344Z,94.86
2023-02-11T06:25:52.545Z,94.86
2023-02-11T06:26:51.365Z,94.76
2023-02-11T06:27:51.325Z,94.76
2023-02-11T06:28:51.316Z,94.76
2023-02-11T06:29:51.316Z,94.76
2023-02-11T06:30:51.409Z,94.65
2023-02-11T06:31:51.411Z,94.55
2023-02-11T06:32:51.331Z,94.55
2023-02-11T06:33:51.254Z,94.51
2023-02-11T06:34:51.276Z,94.40
2023-02-11T06:35:51.504Z,94.30
2023-02-11T06:36:51.238Z,94.30
2023-02-11T06:37:51.218Z,94.20
2023-02-11T06:38:51.211Z,94.20
2023-02-11T06:39:51.219Z,94.09
2023-02-11T06:40:51.190Z,94.09
2023-02-11T06:41:51.167Z,94.09
2023-02-11T06:42:51.161Z,94.20
2023-02-11T06:43:51.145Z,94.20
2023-02-11T06:44:51.147Z,94.09
2023-02-11T06:45:51.416Z,94.09
2023-02-11T06:46:51.151Z,94.09
2023-02-11T06:47:51.096Z,93.99
2023-02-11T06:48:51.098Z,93.88
2023-02-11T06:49:51.078Z,93.88
2023-02-11T06:50:51.070Z,93.88
2023-02-11T06:51:51.058Z,93.88
2023-02-11T06:52:51.045Z,93.74
2023-02-11T06:53:51.042Z,93.74
2023-02-11T06:54:51.018Z,93.63
2023-02-11T06:55:51.264Z,93.63
2023-02-11T06:56:51.008Z,93.63
2023-02-11T06:57:52.781Z,93.63
2023-02-11T06:58:50.979Z,93.53
2023-02-11T06:59:50.950Z,93.53
2023-02-11T07:00:50.950Z,93.32
2023-02-11T07:01:50.958Z,93.22
2023-02-11T07:02:50.988Z,93.32
2023-02-11T07:03:50.907Z,93.32
2023-02-11T07:04:50.923Z,93.32
2023-02-11T07:05:51.237Z,93.32
2023-02-11T07:06:50.892Z,93.32
2023-02-11T07:07:50.862Z,93.43
2023-02-11T07:08:50.858Z,93.43
2023-02-11T07:09:50.859Z,93.43
2023-02-11T07:10:50.835Z,93.43
2023-02-11T07:11:50.868Z,93.32
2023-02-11T07:12:51.122Z,93.32
2023-02-11T07:13:50.800Z,93.22
2023-02-11T07:14:50.817Z,93.12
2023-02-11T07:15:51.107Z,93.22
2023-02-11T07:16:50.783Z,93.12
2023-02-11T07:17:50.749Z,93.22
2023-02-11T07:18:50.730Z,93.32
2023-02-11T07:19:50.743Z,93.32
2023-02-11T07:20:50.740Z,93.32
2023-02-11T07:21:50.730Z,93.12
2023-02-11T07:22:50.701Z,93.12
2023-02-11T07:23:50.689Z,93.12
2023-02-11T07:24:50.683Z,93.22
2023-02-11T07:25:50.969Z,93.22
2023-02-11T07:26:50.657Z,93.22
2023-02-11T07:27:50.641Z,93.22
2023-02-11T07:28:50.620Z,93.18
2023-02-11T07:29:50.612Z,93.18
2023-02-11T07:30:50.621Z,93.18
2023-02-11T07:31:50.663Z,92.97
2023-02-11T07:32:50.569Z,92.86
2023-02-11T07:33:50.571Z,92.86
2023-02-11T07:34:50.569Z,92.86
2023-02-11T07:35:50.773Z,92.86
2023-02-11T07:36:50.563Z,92.86
2023-02-11T07:37:50.510Z,92.86
2023-02-11T07:38:57.519Z,92.86
2023-02-11T07:39:57.518Z,92.76
2023-02-11T07:40:57.500Z,92.76
2023-02-11T07:41:50.480Z,92.66
2023-02-11T07:42:57.490Z,92.66
2023-02-11T07:43:50.456Z,92.76
2023-02-11T07:44:50.759Z,92.66
2023-02-11T07:45:50.679Z,92.66
2023-02-11T07:46:50.481Z,92.61
2023-02-11T07:47:50.405Z,92.61
2023-02-11T07:48:50.395Z,92.51
2023-02-11T07:49:50.396Z,92.72
2023-02-11T07:50:50.366Z,92.72
2023-02-11T07:51:50.385Z,92.72
2023-02-11T07:52:50.340Z,92.72
2023-02-11T07:53:50.358Z,92.66
2023-02-11T07:54:50.335Z,92.66
2023-02-11T07:55:50.749Z,92.45
2023-02-11T07:56:50.297Z,92.45
2023-02-11T07:57:50.285Z,92.45
2023-02-11T07:58:50.287Z,92.55
2023-02-11T07:59:50.275Z,92.55
2023-02-11T08:00:50.330Z,92.61
2023-02-11T08:01:50.265Z,92.72
2023-02-11T08:02:50.235Z,92.72
2023-02-11T08:03:50.226Z,92.72
2023-02-11T08:04:50.246Z,92.72
2023-02-11T08:05:50.557Z,92.51
2023-02-11T08:06:50.185Z,92.41
2023-02-11T08:07:50.176Z,92.20
2023-02-11T08:08:50.165Z,92.20
2023-02-11T08:09:50.177Z,92.10
2023-02-11T08:10:50.490Z,92.10
2023-02-11T08:11:50.135Z,92.10
2023-02-11T08:12:50.113Z,92.10
2023-02-11T08:13:50.130Z,92.20
2023-02-11T08:14:50.124Z,92.20
2023-02-11T08:15:50.365Z,91.99
2023-02-11T08:16:50.146Z,91.89
2023-02-11T08:17:50.076Z,91.78
2023-02-11T08:18:50.057Z,91.68
2023-02-11T08:19:50.044Z,91.68
2023-02-11T08:20:50.365Z,91.68
2023-02-11T08:21:50.029Z,91.58
2023-02-11T08:22:49.994Z,91.58
2023-02-11T08:23:50.004Z,91.68
2023-02-11T08:24:52.314Z,91.68
2023-02-11T08:25:49.976Z,91.78
2023-02-11T08:26:49.973Z,91.89
2023-02-11T08:27:49.947Z,91.89
2023-02-11T08:28:49.933Z,91.78
2023-02-11T08:29:49.934Z,91.78
2023-02-11T08:30:50.285Z,91.78
2023-02-11T08:31:49.973Z,91.99
2023-02-11T08:32:49.899Z,92.10
2023-02-11T08:33:49.887Z,91.99
2023-02-11T08:34:49.895Z,91.89
2023-02-11T08:35:49.863Z,91.78
2023-02-11T08:36:49.849Z,91.89
2023-02-11T08:37:49.860Z,91.95
2023-02-11T08:38:49.812Z,91.95
2023-02-11T08:39:49.831Z,91.95
2023-02-11T08:40:50.195Z,91.74
2023-02-11T08:41:49.807Z,91.74
2023-02-11T08:42:49.794Z,91.64
2023-02-11T08:43:49.825Z,91.53
2023-02-11T08:44:49.772Z,91.53
2023-02-11T08:45:50.067Z,91.53
2023-02-11T08:46:49.732Z,91.43
2023-02-11T08:47:49.755Z,91.22
2023-02-11T08:48:49.702Z,91.02
2023-02-11T08:49:49.700Z,90.91
2023-02-11T08:50:49.684Z,90.81
2023-02-11T08:51:49.676Z,90.81
2023-02-11T08:52:49.674Z,91.02
2023-02-11T08:53:49.650Z,91.12
2023-02-11T08:54:49.642Z,91.22
2023-02-11T08:55:49.969Z,91.12
2023-02-11T08:56:49.618Z,91.22
2023-02-11T08:57:49.612Z,91.33
2023-02-11T08:58:49.594Z,91.33
2023-02-11T08:59:49.614Z,91.33
2023-02-11T09:00:50.052Z,91.33
2023-02-11T09:01:49.666Z,91.43
2023-02-11T09:02:49.983Z,91.49
2023-02-11T09:03:49.866Z,91.49
2023-02-11T09:04:49.539Z,91.49
2023-02-11T09:05:49.515Z,91.39
2023-02-11T09:06:49.506Z,91.39
2023-02-11T09:07:49.495Z,91.28
2023-02-11T09:08:49.579Z,91.28
2023-02-11T09:09:52.211Z,91.28
2023-02-11T09:10:49.859Z,91.08
2023-02-11T09:11:49.446Z,91.08
2023-02-11T09:12:49.434Z,91.18
2023-02-11T09:13:50.510Z,91.18
2023-02-11T09:14:49.435Z,91.18
2023-02-11T09:15:49.413Z,91.39
2023-02-11T09:16:49.504Z,91.49
2023-02-11T09:17:49.393Z,91.49
2023-02-11T09:18:49.394Z,91.49
2023-02-11T09:19:49.441Z,91.39
2023-02-11T09:20:49.525Z,91.39
2023-02-11T09:21:49.370Z,91.49
2023-02-11T09:22:49.340Z,91.49
2023-02-11T09:23:49.353Z,91.24
2023-02-11T09:24:49.330Z,91.14
2023-02-11T09:25:49.558Z,90.93
2023-02-11T09:26:49.276Z,90.83
2023-02-11T09:27:49.268Z,90.72
2023-02-11T09:28:49.252Z,90.52
2023-02-11T09:29:49.271Z,90.52
2023-02-11T09:30:49.663Z,90.52
2023-02-11T09:31:49.366Z,90.47
2023-02-11T09:32:49.216Z,90.37
2023-02-11T09:33:49.210Z,90.16
2023-02-11T09:34:49.530Z,89.96
2023-02-11T09:35:49.187Z,89.86
2023-02-11T09:36:49.167Z,89.86
2023-02-11T09:37:49.183Z,89.86
2023-02-11T09:38:49.150Z,89.96
2023-02-11T09:39:49.221Z,89.86
2023-02-11T09:40:49.387Z,89.75
2023-02-11T09:41:49.121Z,89.86
2023-02-11T09:42:49.116Z,89.86
2023-02-11T09:43:49.186Z,89.65
2023-02-11T09:44:49.108Z,89.54
2023-02-11T09:45:49.117Z,89.65
2023-02-11T09:46:49.084Z,89.75
2023-02-11T09:47:49.057Z,89.86
2023-02-11T09:48:49.042Z,89.86
2023-02-11T09:49:49.307Z,89.75
2023-02-11T09:50:49.211Z,89.96
2023-02-11T09:51:49.037Z,89.86
2023-02-11T09:52:49.011Z,89.96
2023-02-11T09:53:49.067Z,89.75
2023-02-11T09:54:49.437Z,89.65
2023-02-11T09:55:48.973Z,89.75
2023-02-11T09:56:49.002Z,89.75
2023-02-11T09:57:48.968Z,89.75
2023-02-11T09:58:48.924Z,89.71
2023-02-11T09:59:48.922Z,89.61
2023-02-11T10:00:49.124Z,89.61
2023-02-11T10:01:49.002Z,89.61
2023-02-11T10:02:48.892Z,89.61
2023-02-11T10:03:48.932Z,89.61
2023-02-11T10:04:49.197Z,89.61
2023-02-11T10:05:48.861Z,89.40
2023-02-11T10:06:48.834Z,89.40
2023-02-11T10:07:48.832Z,89.19
2023-02-11T10:08:48.813Z,89.19
2023-02-11T10:09:49.131Z,89.15
2023-02-11T10:10:49.029Z,89.15
2023-02-11T10:11:48.784Z,88.94
2023-02-11T10:12:48.780Z,89.04
2023-02-11T10:13:48.816Z,89.15
2023-02-11T10:14:50.663Z,89.04
2023-02-11T10:15:48.833Z,89.04
2023-02-11T10:16:48.730Z,89.25
2023-02-11T10:17:48.727Z,89.36
2023-02-11T10:18:48.838Z,89.36
2023-02-11T10:19:48.707Z,89.36
2023-02-11T10:20:48.871Z,89.36
2023-02-11T10:21:48.666Z,89.36
2023-02-11T10:22:48.666Z,89.25
2023-02-11T10:23:48.688Z,89.22
2023-02-11T10:24:48.969Z,89.22
2023-02-11T10:25:48.654Z,89.11
2023-02-11T10:26:48.636Z,89.11
2023-02-11T10:27:48.609Z,89.11
2023-02-11T10:28:48.613Z,89.01
2023-02-11T10:29:48.579Z,89.01
2023-02-11T10:30:48.707Z,89.01
2023-02-11T10:31:48.638Z,88.80
2023-02-11T10:32:48.560Z,88.65
2023-02-11T10:33:48.579Z,88.65
2023-02-11T10:34:48.583Z,88.65
2023-02-11T10:35:48.561Z,88.76
2023-02-11T10:36:48.508Z,88.76
2023-02-11T10:37:48.487Z,88.86
2023-02-11T10:38:50.450Z,88.76
2023-02-11T10:39:48.465Z,88.65
2023-02-11T10:40:56.501Z,88.55
2023-02-11T10:41:48.449Z,88.55
2023-02-11T10:42:48.435Z,88.41
2023-02-11T10:43:48.429Z,88.51
2023-02-11T10:44:48.442Z,88.51
2023-02-11T10:45:48.505Z,88.41
2023-02-11T10:46:48.435Z,88.31
2023-02-11T10:47:48.434Z,88.41
2023-02-11T10:48:48.389Z,88.41
2023-02-11T10:49:48.358Z,88.41
2023-02-11T10:50:49.336Z,88.31
2023-02-11T10:51:48.330Z,88.31
2023-02-11T10:52:48.340Z,88.20
2023-02-11T10:53:48.370Z,88.10
2023-02-11T10:54:48.338Z,88.10
2023-02-11T10:55:48.292Z,88.20
2023-02-11T10:56:48.270Z,88.20
2023-02-11T10:57:48.268Z,88.26
2023-02-11T10:58:48.251Z,88.16
2023-02-11T10:59:48.254Z,87.95
2023-02-11T11:00:48.320Z,88.06
2023-02-11T11:01:48.290Z,88.06
2023-02-11T11:02:48.223Z,87.95
2023-02-11T11:03:48.254Z,87.95
2023-02-11T11:04:48.227Z,88.16
2023-02-11T11:05:48.170Z,88.16
2023-02-11T11:06:48.164Z,88.26
2023-02-11T11:07:48.144Z,88.37
2023-02-11T11:08:48.198Z,88.26
2023-02-11T11:09:48.134Z,88.06
2023-02-11T11:10:48.153Z,88.06
2023-02-11T11:11:48.104Z,87.95
2023-02-11T11:12:48.089Z,87.85
2023-02-11T11:13:48.105Z,87.95
2023-02-11T11:14:48.072Z,88.06
2023-02-11T11:15:48.078Z,88.16
2023-02-11T11:16:48.054Z,88.16
2023-02-11T11:17:48.049Z,87.95
2023-02-11T11:18:48.055Z,87.95
2023-02-11T11:19:48.055Z,87.85
2023-02-11T11:20:48.095Z,88.06
2023-02-11T11:21:47.982Z,87.95
2023-02-11T11:22:47.963Z,88.06
2023-02-11T11:23:47.963Z,88.16
2023-02-11T11:24:47.972Z,88.16
2023-02-11T11:25:47.942Z,88.02
2023-02-11T11:26:47.932Z,88.02
2023-02-11T11:27:47.929Z,88.12
2023-02-11T11:28:47.904Z,88.22
2023-02-11T11:29:47.915Z,88.02
2023-02-11T11:30:47.942Z,88.02
2023-02-11T11:31:47.967Z,88.12
2023-02-11T11:32:47.853Z,88.22
2023-02-11T11:33:47.872Z,88.26
2023-02-11T11:34:47.822Z,88.02
2023-02-11T11:35:47.821Z,88.06
2023-02-11T11:36:47.804Z,88.22
2023-02-11T11:37:47.801Z,88.22
2023-02-11T11:38:47.791Z,88.22
2023-02-11T11:39:47.781Z,88.12
2023-02-11T11:40:47.809Z,88.12
2023-02-11T11:41:47.860Z,88.32
2023-02-11T11:42:47.740Z,88.32
2023-02-11T11:43:47.739Z,88.22
2023-02-11T11:44:47.720Z,88.12
2023-02-11T11:45:47.690Z,88.02
2023-02-11T11:46:47.748Z,88.12
2023-02-11T11:47:47.690Z,88.22
2023-02-11T11:48:48.621Z,88.22
2023-02-11T11:49:47.664Z,88.22
2023-02-11T11:50:47.709Z,88.22
2023-02-11T11:51:47.628Z,88.22
2023-02-11T11:52:47.618Z,88.22
2023-02-11T11:53:47.611Z,88.22
2023-02-11T11:54:47.609Z,88.12
2023-02-11T11:55:47.593Z,88.02
2023-02-11T11:56:47.568Z,88.02
2023-02-11T11:57:47.563Z,88.02
2023-02-11T11:58:47.558Z,87.92
2023-02-11T11:59:47.541Z,87.77
2023-02-11T12:00:47.537Z,87.56
2023-02-11T12:01:47.514Z,87.56
2023-02-11T12:02:47.525Z,87.56
2023-02-11T12:03:47.506Z,87.35
2023-02-11T12:04:47.480Z,87.26
2023-02-11T12:05:47.475Z,87.26
2023-02-11T12:06:47.478Z,87.26
2023-02-11T12:07:47.450Z,87.35
2023-02-11T12:08:47.444Z,87.32
2023-02-11T12:09:47.419Z,87.21
2023-02-11T12:10:47.410Z,87.21
2023-02-11T12:11:47.390Z,87.01
2023-02-11T12:12:47.383Z,86.70
2023-02-11T12:13:47.388Z,86.49
2023-02-11T12:14:47.356Z,86.60
2023-02-11T12:15:47.350Z,86.60
2023-02-11T12:16:47.363Z,86.39
2023-02-11T12:17:47.323Z,86.45
2023-02-11T12:18:47.710Z,86.45
2023-02-11T12:19:47.299Z,86.35
2023-02-11T12:20:47.296Z,86.24
2023-02-11T12:21:47.282Z,86.35
2023-02-11T12:22:47.418Z,86.35
2023-02-11T12:23:47.300Z,86.45
2023-02-11T12:24:47.239Z,86.15
2023-02-11T12:25:47.260Z,86.15
2023-02-11T12:26:47.231Z,86.35
2023-02-11T12:27:47.208Z,86.24
2023-02-11T12:28:47.191Z,86.15
2023-02-11T12:29:47.204Z,86.15
2023-02-11T12:30:47.211Z,86.15
2023-02-11T12:31:47.283Z,86.24
2023-02-11T12:32:47.141Z,86.35
2023-02-11T12:33:47.143Z,86.24
2023-02-11T12:34:47.131Z,86.45
2023-02-11T12:35:47.112Z,86.66
2023-02-11T12:36:47.102Z,86.45
2023-02-11T12:37:47.093Z,86.55
2023-02-11T12:38:47.083Z,86.55
2023-02-11T12:39:47.092Z,86.66
2023-02-11T12:40:47.048Z,86.97
2023-02-11T12:41:47.058Z,87.17
2023-02-11T12:42:47.041Z,87.38
2023-02-11T12:43:47.023Z,87.48
2023-02-11T12:44:47.026Z,87.07
2023-02-11T12:45:47.073Z,87.17
2023-02-11T12:46:46.992Z,87.38
2023-02-11T12:47:46.964Z,87.38
2023-02-11T12:48:46.964Z,87.48
2023-02-11T12:49:46.975Z,87.48
2023-02-11T12:50:46.955Z,87.27
2023-02-11T12:51:47.016Z,87.17
2023-02-11T12:52:46.918Z,87.27